createdAt,value
2023-04-06T00:00:01.978Z,-1.42
2023-04-06T00:02:28.604Z,-0.76
2023-04-06T00:04:55.151Z,-0.82
2023-04-06T00:07:21.761Z,-0.81
2023-04-06T00:09:48.210Z,-0.82
2023-04-06T00:12:16.104Z,-0.88
2023-04-06T00:14:42.500Z,-0.91
2023-04-06T00:17:09.322Z,-0.96
2023-04-06T00:19:35.848Z,-0.97
2023-04-06T00:22:03.414Z,-0.98
2023-04-06T00:24:30.169Z,-0.96
2023-04-06T00:26:57.341Z,-1.02
2023-04-06T00:29:24.060Z,-1.02
2023-04-06T00:31:50.709Z,-0.91
2023-04-06T00:34:17.308Z,-0.98
2023-04-06T00:36:43.903Z,-1.03
2023-04-06T00:39:11.157Z,-1.01
2023-04-06T00:41:37.773Z,-1.06
2023-04-06T00:44:04.489Z,-1.10
2023-04-06T00:46:31.351Z,-1.05
2023-04-06T00:48:58.249Z,-1.02
2023-04-06T00:51:24.931Z,-1.02
2023-04-06T00:53:51.579Z,-1.13
2023-04-06T00:56:18.018Z,-1.10
2023-04-06T00:58:44.794Z,-1.13
2023-04-06T01:01:11.640Z,-1.15
2023-04-06T01:03:38.424Z,-1.16
2023-04-06T01:06:05.137Z,-1.19
2023-04-06T01:08:31.970Z,-1.19
2023-04-06T01:11:01.001Z,-1.18
2023-04-06T01:13:28.389Z,-1.29
2023-04-06T01:15:55.113Z,-1.19
2023-04-06T01:18:26.942Z,-1.16
2023-04-06T01:20:53.428Z,-1.18
2023-04-06T01:23:20.725Z,-1.26
2023-04-06T01:25:47.480Z,-1.31
2023-04-06T01:28:14.244Z,-1.28
2023-04-06T01:30:41.313Z,-1.37
2023-04-06T01:33:08.196Z,-1.36
2023-04-06T01:35:35.007Z,-1.41
2023-04-06T01:38:01.461Z,-1.37
2023-04-06T01:40:28.111Z,-1.41
2023-04-06T01:42:55.101Z,-1.41
2023-04-06T01:45:22.004Z,-1.35
2023-04-06T01:47:48.730Z,-1.23
2023-04-06T01:50:18.215Z,-1.41
2023-04-06T01:52:44.924Z,-2.04
2023-04-06T01:55:11.648Z,-1.48
2023-04-06T01:57:38.289Z,-1.54
2023-04-06T02:00:05.304Z,-1.63
2023-04-06T02:02:32.413Z,-1.67
2023-04-06T02:04:59.363Z,-1.63
2023-04-06T02:07:25.946Z,-1.61
2023-04-06T02:09:56.856Z,-1.63
2023-04-06T02:12:25.116Z,-2.23
2023-04-06T02:14:51.829Z,-1.65
2023-04-06T02:17:18.480Z,-1.65
2023-04-06T02:19:45.178Z,-1.70
2023-04-06T02:22:11.840Z,-1.71
2023-04-06T02:24:38.445Z,-1.75
2023-04-06T02:27:05.001Z,-1.75
2023-04-06T02:29:31.653Z,-1.71
2023-04-06T02:31:58.296Z,-1.82
2023-04-06T02:34:24.863Z,-1.76
2023-04-06T02:36:51.863Z,-2.30
2023-04-06T02:39:18.600Z,-1.71
2023-04-06T02:41:45.241Z,-1.66
2023-04-06T02:44:11.727Z,-1.66
2023-04-06T02:46:38.381Z,-1.66
2023-04-06T02:49:04.970Z,-2.21
2023-04-06T02:51:31.424Z,-1.76
2023-04-06T02:53:58.013Z,-1.78
2023-04-06T02:56:24.908Z,-1.78
2023-04-06T02:58:51.642Z,-1.87
2023-04-06T03:01:18.209Z,-1.86
2023-04-06T03:03:44.861Z,-1.92
2023-04-06T03:06:11.511Z,-1.88
2023-04-06T03:08:38.109Z,-1.95
2023-04-06T03:11:04.693Z,-1.89
2023-04-06T03:13:31.389Z,-1.98
2023-04-06T03:15:58.795Z,-1.98
2023-04-06T03:18:25.985Z,-2.03
2023-04-06T03:20:55.051Z,-2.01
2023-04-06T03:23:22.346Z,-2.06
2023-04-06T03:25:48.787Z,-2.08
2023-04-06T03:28:15.818Z,-1.97
2023-04-06T03:30:42.429Z,-2.03
2023-04-06T03:33:08.984Z,-2.10
2023-04-06T03:35:35.686Z,-2.12
2023-04-06T03:38:02.240Z,-2.07
2023-04-06T03:40:28.858Z,-2.14
2023-04-06T03:42:55.584Z,-2.15
2023-04-06T03:45:22.190Z,-2.11
2023-04-06T03:47:48.841Z,-2.12
2023-04-06T03:50:15.419Z,-2.17
2023-04-06T03:52:42.062Z,-2.13
2023-04-06T03:55:09.065Z,-2.19
2023-04-06T03:57:36.538Z,-2.31
2023-04-06T04:00:04.281Z,-2.32
2023-04-06T04:02:31.130Z,-2.36
2023-04-06T04:04:57.693Z,-2.37
2023-04-06T04:07:24.116Z,-2.40
2023-04-06T04:09:50.724Z,-2.37
2023-04-06T04:12:18.022Z,-2.43
2023-04-06T04:14:45.084Z,-2.39
2023-04-06T04:17:11.745Z,-2.33
2023-04-06T04:19:38.378Z,-2.46
2023-04-06T04:22:06.049Z,-2.46
2023-04-06T04:24:33.008Z,-2.43
2023-04-06T04:27:02.255Z,-2.43
2023-04-06T04:29:29.113Z,-2.42
2023-04-06T04:31:56.348Z,-2.29
2023-04-06T04:34:27.044Z,-2.35
2023-04-06T04:36:53.752Z,-2.35
2023-04-06T04:39:20.318Z,-2.38
2023-04-06T04:41:47.649Z,-2.36
2023-04-06T04:44:14.254Z,-2.36
2023-04-06T04:46:42.639Z,-2.28
2023-04-06T04:49:09.552Z,-2.43
2023-04-06T04:51:37.636Z,-2.41
2023-04-06T04:54:04.255Z,-2.41
2023-04-06T04:56:30.929Z,-2.49
2023-04-06T04:58:57.688Z,-2.50
2023-04-06T05:01:24.255Z,-2.48
2023-04-06T05:03:51.696Z,-2.48
2023-04-06T05:06:19.915Z,-2.32
2023-04-06T05:08:46.385Z,-2.43
2023-04-06T05:11:13.038Z,-2.44
2023-04-06T05:13:39.684Z,-2.41
2023-04-06T05:16:07.012Z,-2.48
2023-04-06T05:18:36.806Z,-2.51
2023-04-06T05:21:03.521Z,-2.48
2023-04-06T05:23:30.389Z,-2.37
2023-04-06T05:25:57.105Z,-2.43
2023-04-06T05:28:23.728Z,-2.36
2023-04-06T05:30:50.635Z,-2.38
2023-04-06T05:33:17.421Z,-2.29
2023-04-06T05:35:44.148Z,-2.18
2023-04-06T05:38:11.362Z,-2.29
2023-04-06T05:40:39.340Z,-2.15
2023-04-06T05:43:06.285Z,-2.09
2023-04-06T05:45:32.802Z,-1.99
2023-04-06T05:47:59.292Z,-1.89
2023-04-06T05:50:26.085Z,-1.91
2023-04-06T05:52:52.627Z,-1.92
2023-04-06T05:55:19.150Z,-1.91
2023-04-06T05:57:45.860Z,-1.81
2023-04-06T06:00:12.728Z,-1.80
2023-04-06T06:02:40.542Z,-1.50
2023-04-06T06:05:07.526Z,-1.53
2023-04-06T06:07:34.075Z,-1.24
2023-04-06T06:10:01.453Z,-1.13
2023-04-06T06:12:28.160Z,-1.18
2023-04-06T06:14:54.887Z,-1.18
2023-04-06T06:17:21.505Z,-1.06
2023-04-06T06:19:48.569Z,-0.80
2023-04-06T06:22:15.374Z,-0.69
2023-04-06T06:24:42.131Z,-0.36
2023-04-06T06:27:09.042Z,-0.16
2023-04-06T06:29:35.824Z,-0.05
2023-04-06T06:32:02.418Z,0.47
2023-04-06T06:34:29.131Z,1.50
2023-04-06T06:36:58.460Z,2.86
2023-04-06T06:39:24.976Z,3.51
2023-04-06T06:41:51.353Z,2.98
2023-04-06T06:44:18.030Z,3.50
2023-04-06T06:46:44.587Z,3.40
2023-04-06T06:49:13.729Z,2.80
2023-04-06T06:51:40.438Z,2.75
2023-04-06T06:54:08.011Z,3.03
2023-04-06T06:56:37.087Z,2.79
2023-04-06T06:59:03.847Z,3.56
2023-04-06T07:01:30.487Z,3.32
2023-04-06T07:03:57.172Z,3.60
2023-04-06T07:06:23.635Z,3.71
2023-04-06T07:08:50.276Z,4.33
2023-04-06T07:11:16.751Z,5.63
2023-04-06T07:13:43.595Z,6.74
2023-04-06T07:16:10.896Z,5.40
2023-04-06T07:18:37.424Z,5.25
2023-04-06T07:21:04.090Z,6.60
2023-04-06T07:23:30.771Z,6.66
2023-04-06T07:25:57.274Z,7.82
2023-04-06T07:28:24.017Z,6.89
2023-04-06T07:30:50.572Z,7.96
2023-04-06T07:33:17.176Z,9.15
2023-04-06T07:35:43.855Z,8.96
2023-04-06T07:38:10.474Z,9.22
2023-04-06T07:40:36.993Z,9.85
2023-04-06T07:43:03.631Z,8.63
2023-04-06T07:45:30.739Z,9.21
2023-04-06T07:47:57.531Z,10.29
2023-04-06T07:50:24.106Z,9.92
2023-04-06T07:52:50.735Z,9.69
2023-04-06T07:55:17.573Z,9.89
2023-04-06T07:57:44.431Z,11.79
2023-04-06T08:00:11.434Z,10.40
2023-04-06T08:02:37.897Z,9.28
2023-04-06T08:05:04.428Z,9.53
2023-04-06T08:07:31.144Z,11.37
2023-04-06T08:09:57.896Z,11.20
2023-04-06T08:12:24.455Z,11.34
2023-04-06T08:14:51.592Z,11.80
2023-04-06T08:17:18.241Z,10.06
2023-04-06T08:19:45.504Z,11.02
2023-04-06T08:22:12.248Z,10.59
2023-04-06T08:24:38.709Z,12.43
2023-04-06T08:27:05.216Z,13.78
2023-04-06T08:29:31.996Z,12.48
2023-04-06T08:31:58.732Z,14.24
2023-04-06T08:34:25.635Z,14.42
2023-04-06T08:36:52.383Z,14.94
2023-04-06T08:39:25.045Z,15.36
2023-04-06T08:41:53.565Z,14.79
2023-04-06T08:44:20.465Z,14.94
2023-04-06T08:46:47.425Z,14.24
2023-04-06T08:49:15.341Z,14.04
2023-04-06T08:51:43.303Z,12.69
2023-04-06T08:54:09.937Z,12.44
2023-04-06T08:56:38.761Z,12.70
2023-04-06T08:59:06.213Z,12.94
2023-04-06T09:01:34.936Z,12.27
2023-04-06T09:04:01.944Z,13.06
2023-04-06T09:06:28.806Z,13.75
2023-04-06T09:08:56.230Z,13.56
2023-04-06T09:11:22.905Z,11.91
2023-04-06T09:13:53.664Z,12.87
2023-04-06T09:16:20.935Z,11.08
2023-04-06T09:18:48.029Z,12.83
2023-04-06T09:21:17.488Z,12.36
2023-04-06T09:23:44.473Z,12.64
2023-04-06T09:26:12.489Z,13.28
2023-04-06T09:28:59.047Z,13.16
2023-04-06T09:31:26.626Z,12.34
2023-04-06T09:33:53.886Z,12.25
2023-04-06T09:36:21.011Z,13.59
2023-04-06T09:38:56.577Z,12.52
2023-04-06T09:41:26.915Z,13.02
2023-04-06T09:44:02.351Z,14.05
2023-04-06T09:46:30.036Z,14.03
2023-04-06T09:48:56.660Z,13.68
2023-04-06T09:51:24.019Z,13.29
2023-04-06T09:53:53.244Z,13.45
2023-04-06T09:56:22.108Z,14.08
2023-04-06T09:58:50.850Z,13.15
2023-04-06T10:01:20.090Z,13.38
2023-04-06T10:04:07.336Z,12.86
2023-04-06T10:06:36.279Z,12.67
2023-04-06T10:09:04.384Z,12.76
2023-04-06T10:11:32.155Z,13.09
2023-04-06T10:13:58.780Z,13.95
2023-04-06T10:16:27.255Z,13.38
2023-04-06T10:18:58.141Z,13.82
2023-04-06T10:21:26.836Z,15.65
2023-04-06T10:23:54.962Z,13.63
2023-04-06T10:26:25.085Z,12.93
2023-04-06T10:28:52.158Z,13.35
2023-04-06T10:31:30.143Z,13.57
2023-04-06T10:33:57.768Z,14.86
2023-04-06T10:36:34.659Z,12.53
2023-04-06T10:39:03.499Z,14.23
2023-04-06T10:41:56.608Z,13.65
2023-04-06T10:44:24.488Z,12.76
2023-04-06T10:46:56.316Z,13.80
2023-04-06T10:49:23.817Z,14.28
2023-04-06T10:51:54.985Z,16.05
2023-04-06T10:54:25.628Z,16.39
2023-04-06T10:56:52.195Z,14.84
2023-04-06T10:59:22.686Z,15.83
2023-04-06T11:01:57.018Z,17.28
2023-04-06T11:04:24.577Z,17.65
2023-04-06T11:06:51.605Z,15.77
2023-04-06T11:09:25.072Z,16.52
2023-04-06T11:11:51.725Z,15.05
2023-04-06T11:14:19.296Z,15.68
2023-04-06T11:16:48.341Z,16.21
2023-04-06T11:19:14.994Z,15.79
2023-04-06T11:21:42.461Z,14.83
2023-04-06T11:24:12.951Z,15.38
2023-04-06T11:26:49.999Z,18.42
2023-04-06T11:29:17.943Z,16.85
2023-04-06T11:31:48.278Z,15.66
2023-04-06T11:34:18.866Z,15.75
2023-04-06T11:36:46.387Z,16.68
2023-04-06T11:39:14.151Z,16.53
2023-04-06T11:41:40.989Z,15.94
2023-04-06T11:44:07.586Z,14.98
2023-04-06T11:46:34.259Z,15.49
2023-04-06T11:49:01.758Z,19.24
2023-04-06T11:51:28.982Z,15.62
2023-04-06T11:53:56.545Z,16.70
2023-04-06T11:56:30.409Z,19.55
2023-04-06T11:58:58.041Z,17.61
2023-04-06T12:01:24.763Z,17.91
2023-04-06T12:03:52.268Z,18.50
2023-04-06T12:06:19.183Z,19.52
2023-04-06T12:08:48.724Z,18.24
2023-04-06T12:11:15.321Z,17.57
2023-04-06T12:13:41.959Z,17.75
2023-04-06T12:16:08.444Z,18.72
2023-04-06T12:18:35.100Z,19.67
2023-04-06T12:21:01.556Z,21.25
2023-04-06T12:23:30.167Z,18.88
2023-04-06T12:25:57.020Z,18.05
2023-04-06T12:28:27.848Z,20.15
2023-04-06T12:30:55.011Z,18.40
2023-04-06T12:33:22.226Z,18.60
2023-04-06T12:35:49.771Z,19.58
2023-04-06T12:38:17.476Z,20.18
2023-04-06T12:40:44.331Z,17.63
2023-04-06T12:43:10.965Z,16.55
2023-04-06T12:45:37.389Z,20.14
2023-04-06T12:48:04.057Z,17.96
2023-04-06T12:50:30.648Z,17.91
2023-04-06T12:52:57.518Z,17.38
2023-04-06T12:55:24.184Z,16.56
2023-04-06T12:57:50.857Z,17.45
2023-04-06T13:00:18.009Z,17.04
2023-04-06T13:02:48.260Z,17.97
2023-04-06T13:05:20.070Z,17.01
2023-04-06T13:07:47.956Z,17.83
2023-04-06T13:10:14.576Z,17.85
2023-04-06T13:12:41.008Z,18.88
2023-04-06T13:15:07.698Z,18.92
2023-04-06T13:17:34.240Z,20.11
2023-04-06T13:20:00.921Z,19.53
2023-04-06T13:22:27.451Z,19.53
2023-04-06T13:24:54.057Z,21.45
2023-04-06T13:27:20.620Z,16.96
2023-04-06T13:29:50.713Z,18.21
2023-04-06T13:32:17.699Z,15.92
2023-04-06T13:34:46.184Z,15.21
2023-04-06T13:37:13.408Z,15.26
2023-04-06T13:39:40.633Z,14.63
2023-04-06T13:42:07.856Z,15.51
2023-04-06T13:44:34.405Z,14.42
2023-04-06T13:47:02.121Z,14.40
2023-04-06T13:49:28.593Z,14.41
2023-04-06T13:51:55.206Z,13.71
2023-04-06T13:54:21.894Z,13.10
2023-04-06T13:56:48.309Z,14.42
2023-04-06T13:59:14.899Z,14.89
2023-04-06T14:01:41.991Z,14.85
2023-04-06T14:04:08.695Z,13.92
2023-04-06T14:06:35.225Z,14.13
2023-04-06T14:09:02.109Z,13.86
2023-04-06T14:11:29.234Z,13.88
2023-04-06T14:13:58.057Z,14.66
2023-04-06T14:16:26.015Z,14.08
2023-04-06T14:18:53.422Z,13.87
2023-04-06T14:21:20.080Z,14.03
2023-04-06T14:23:47.344Z,13.70
2023-04-06T14:26:14.221Z,13.77
2023-04-06T14:28:41.250Z,13.31
2023-04-06T14:31:13.017Z,14.56
2023-04-06T14:33:40.410Z,14.06
2023-04-06T14:36:07.412Z,14.21
2023-04-06T14:38:37.574Z,14.06
2023-04-06T14:41:04.190Z,13.72
2023-04-06T14:43:32.012Z,13.56
2023-04-06T14:46:02.386Z,14.16
2023-04-06T14:48:29.200Z,14.00
2023-04-06T14:50:56.747Z,14.03
2023-04-06T14:53:24.458Z,13.83
2023-04-06T14:55:54.023Z,13.68
2023-04-06T14:58:21.570Z,13.89
2023-04-06T15:00:48.201Z,13.96
2023-04-06T15:03:15.833Z,14.33
2023-04-06T15:05:42.794Z,13.83
2023-04-06T15:08:15.470Z,13.45
2023-04-06T15:10:42.227Z,13.91
2023-04-06T15:13:08.865Z,13.45
2023-04-06T15:15:35.443Z,13.14
2023-04-06T15:18:05.865Z,13.07
2023-04-06T15:20:32.270Z,13.03
2023-04-06T15:22:58.767Z,12.94
2023-04-06T15:25:25.839Z,13.17
2023-04-06T15:27:52.382Z,13.13
2023-04-06T15:30:19.120Z,13.08
2023-04-06T15:33:04.839Z,13.39
2023-04-06T15:35:31.491Z,13.15
2023-04-06T15:37:58.282Z,12.69
2023-04-06T15:40:25.477Z,12.68
2023-04-06T15:42:51.997Z,12.91
2023-04-06T15:45:18.584Z,12.76
2023-04-06T15:47:46.306Z,12.65
2023-04-06T15:50:15.335Z,12.84
2023-04-06T15:52:42.579Z,12.55
2023-04-06T15:55:10.035Z,12.56
2023-04-06T15:57:36.608Z,12.57
2023-04-06T16:00:05.091Z,12.52
2023-04-06T16:02:32.174Z,12.75
2023-04-06T16:05:01.121Z,12.71
2023-04-06T16:07:27.673Z,12.83
2023-04-06T16:09:54.382Z,12.99
2023-04-06T16:12:20.915Z,13.01
2023-04-06T16:14:47.502Z,12.99
2023-04-06T16:17:14.236Z,13.11
2023-04-06T16:19:40.685Z,12.85
2023-04-06T16:22:07.604Z,12.78
2023-04-06T16:24:34.135Z,12.47
2023-04-06T16:27:01.086Z,12.67
2023-04-06T16:29:28.627Z,12.61
2023-04-06T16:31:55.342Z,12.52
2023-04-06T16:34:21.966Z,12.67
2023-04-06T16:36:48.517Z,11.76
2023-04-06T16:39:16.030Z,12.38
2023-04-06T16:41:42.793Z,12.43
2023-04-06T16:44:09.323Z,12.30
2023-04-06T16:46:36.485Z,12.48
2023-04-06T16:49:04.848Z,12.49
2023-04-06T16:51:34.426Z,12.52
2023-04-06T16:54:02.420Z,12.52
2023-04-06T16:56:29.361Z,12.47
2023-04-06T16:58:56.129Z,12.51
2023-04-06T17:01:23.933Z,12.37
2023-04-06T17:03:51.238Z,12.58
2023-04-06T17:06:18.281Z,12.25
2023-04-06T17:08:45.709Z,12.19
2023-04-06T17:11:14.854Z,12.17
2023-04-06T17:13:43.279Z,12.21
2023-04-06T17:16:11.200Z,12.23
2023-04-06T17:18:38.023Z,11.93
2023-04-06T17:21:06.285Z,12.09
2023-04-06T17:23:32.878Z,12.04
2023-04-06T17:25:59.770Z,12.07
2023-04-06T17:28:26.382Z,12.09
2023-04-06T17:30:52.878Z,11.94
2023-04-06T17:33:19.357Z,11.87
2023-04-06T17:35:45.937Z,11.76
2023-04-06T17:38:12.482Z,11.65
2023-04-06T17:40:39.138Z,11.68
2023-04-06T17:43:08.114Z,11.57
2023-04-06T17:45:34.692Z,11.57
2023-04-06T17:48:01.964Z,11.44
2023-04-06T17:50:28.388Z,11.29
2023-04-06T17:52:54.879Z,11.38
2023-04-06T17:55:22.538Z,11.35
2023-04-06T17:57:49.717Z,11.25
2023-04-06T18:00:19.950Z,11.06
2023-04-06T18:02:47.196Z,10.77
2023-04-06T18:05:13.795Z,10.65
2023-04-06T18:07:40.861Z,10.44
2023-04-06T18:10:07.853Z,10.32
2023-04-06T18:12:34.610Z,10.17
2023-04-06T18:15:01.523Z,10.06
2023-04-06T18:17:28.102Z,9.88
2023-04-06T18:19:54.671Z,9.72
2023-04-06T18:22:21.350Z,9.58
2023-04-06T18:24:47.762Z,9.37
2023-04-06T18:27:14.293Z,9.29
2023-04-06T18:29:40.968Z,9.06
2023-04-06T18:32:07.410Z,8.92
2023-04-06T18:34:34.341Z,8.75
2023-04-06T18:37:01.828Z,8.50
2023-04-06T18:39:28.737Z,8.45
2023-04-06T18:41:55.973Z,8.40
2023-04-06T18:44:22.509Z,8.33
2023-04-06T18:46:50.162Z,8.35
2023-04-06T18:49:17.975Z,8.21
2023-04-06T18:51:45.134Z,7.97
2023-04-06T18:54:11.838Z,7.78
2023-04-06T18:56:39.041Z,7.73
2023-04-06T18:59:05.775Z,7.60
2023-04-06T19:01:32.777Z,7.45
2023-04-06T19:04:00.403Z,7.43
2023-04-06T19:06:27.659Z,7.23
2023-04-06T19:08:54.444Z,7.26
2023-04-06T19:11:23.353Z,7.16
2023-04-06T19:13:50.529Z,6.96
2023-04-06T19:16:17.582Z,6.81
2023-04-06T19:18:45.811Z,6.83
2023-04-06T19:21:20.414Z,6.75
2023-04-06T19:23:48.773Z,6.61
2023-04-06T19:26:16.423Z,6.62
2023-04-06T19:28:43.030Z,6.59
2023-04-06T19:31:10.558Z,6.59
2023-04-06T19:33:37.842Z,6.39
2023-04-06T19:36:05.742Z,6.29
2023-04-06T19:38:33.493Z,6.26
2023-04-06T19:41:00.436Z,6.14
2023-04-06T19:43:27.129Z,6.09
2023-04-06T19:45:53.727Z,5.95
2023-04-06T19:48:20.380Z,5.95
2023-04-06T19:50:47.313Z,5.92
2023-04-06T19:53:14.003Z,5.84
2023-04-06T19:55:40.658Z,5.72
2023-04-06T19:58:07.155Z,5.66
2023-04-06T20:00:33.680Z,5.64
2023-04-06T20:03:00.279Z,5.61
2023-04-06T20:05:26.974Z,5.53
2023-04-06T20:07:53.470Z,5.54
2023-04-06T20:10:19.986Z,5.48
2023-04-06T20:12:46.563Z,5.51
2023-04-06T20:15:13.292Z,5.49
2023-04-06T20:17:39.803Z,5.48
2023-04-06T20:20:06.432Z,5.36
2023-04-06T20:22:32.964Z,5.23
2023-04-06T20:24:59.628Z,5.20
2023-04-06T20:27:26.115Z,5.19
2023-04-06T20:29:52.715Z,5.19
2023-04-06T20:32:22.274Z,5.09
2023-04-06T20:34:49.128Z,4.94
2023-04-06T20:37:16.549Z,4.98
2023-04-06T20:39:43.352Z,4.93
2023-04-06T20:42:10.264Z,4.84
2023-04-06T20:44:36.776Z,4.81
2023-04-06T20:47:04.361Z,4.73
2023-04-06T20:49:31.255Z,4.71
2023-04-06T20:51:58.252Z,4.65
2023-04-06T20:54:25.657Z,4.63
2023-04-06T20:56:52.348Z,4.60
2023-04-06T20:59:18.664Z,4.66
2023-04-06T21:01:45.628Z,4.71
2023-04-06T21:04:12.093Z,4.69
2023-04-06T21:06:38.702Z,4.59
2023-04-06T21:09:05.277Z,4.47
2023-04-06T21:11:31.869Z,4.46
2023-04-06T21:13:58.341Z,4.35
2023-04-06T21:16:24.801Z,4.34
2023-04-06T21:18:51.969Z,4.18
2023-04-06T21:21:18.393Z,4.18
2023-04-06T21:23:44.959Z,4.17
2023-04-06T21:26:14.326Z,4.21
2023-04-06T21:28:40.800Z,3.67
2023-04-06T21:31:08.591Z,4.45
2023-04-06T21:33:35.809Z,4.31
2023-04-06T21:36:06.332Z,4.12
2023-04-06T21:38:32.825Z,3.52
2023-04-06T21:40:59.428Z,4.01
2023-04-06T21:43:26.041Z,3.98
2023-04-06T21:45:53.054Z,3.87
2023-04-06T21:48:19.707Z,3.59
2023-04-06T21:50:46.304Z,3.57
2023-04-06T21:53:12.678Z,3.56
2023-04-06T21:55:43.012Z,3.53
2023-04-06T21:58:09.571Z,3.60
2023-04-06T22:00:36.566Z,3.50
2023-04-06T22:03:03.469Z,3.46
2023-04-06T22:05:30.142Z,3.30
2023-04-06T22:07:57.274Z,3.34
2023-04-06T22:10:23.923Z,3.27
2023-04-06T22:12:51.199Z,3.32
2023-04-06T22:15:17.837Z,3.15
2023-04-06T22:17:44.270Z,3.11
2023-04-06T22:20:11.377Z,3.05
2023-04-06T22:22:38.130Z,3.12
2023-04-06T22:25:05.197Z,3.10
2023-04-06T22:27:31.654Z,3.21
2023-04-06T22:29:58.326Z,3.15
2023-04-06T22:32:24.985Z,3.18
2023-04-06T22:34:51.428Z,3.28
2023-04-06T22:37:17.907Z,3.32
2023-04-06T22:39:45.191Z,3.34
2023-04-06T22:42:11.884Z,3.33
2023-04-06T22:44:38.425Z,3.27
2023-04-06T22:47:05.015Z,3.16
2023-04-06T22:49:34.349Z,3.05
2023-04-06T22:52:00.828Z,2.89
2023-04-06T22:54:27.423Z,3.02
2023-04-06T22:56:54.655Z,3.03
2023-04-06T22:59:21.485Z,2.88
2023-04-06T23:01:49.597Z,3.10
2023-04-06T23:04:16.557Z,3.03
2023-04-06T23:06:44.220Z,2.76
2023-04-06T23:09:10.745Z,2.75
2023-04-06T23:11:37.109Z,2.71
2023-04-06T23:14:03.618Z,2.62
2023-04-06T23:16:30.040Z,2.62
2023-04-06T23:18:57.105Z,2.60
2023-04-06T23:21:23.647Z,2.57
2023-04-06T23:23:50.371Z,2.49
2023-04-06T23:26:16.901Z,2.55
2023-04-06T23:28:43.527Z,2.61
2023-04-06T23:31:10.064Z,2.66
2023-04-06T23:33:36.850Z,2.59
2023-04-06T23:36:03.408Z,2.62
2023-04-06T23:38:29.810Z,2.60
2023-04-06T23:40:56.476Z,2.59
2023-04-06T23:43:23.007Z,2.68
2023-04-06T23:45:49.500Z,2.61
2023-04-06T23:48:16.166Z,2.58
2023-04-06T23:50:45.784Z,2.57
2023-04-06T23:53:12.932Z,2.52
2023-04-06T23:55:39.436Z,2.42
2023-04-06T23:58:06.734Z,2.18
